• Join FlightAware (Why Join?)
  • Login
  • US Flag 
08:49PM EST


 

Airport Tracker/Info


-or-


 

Live Flight TrackerFlight Track Log ✈ KAL643 ✈ 15-May-2013 ✈ RKSI / ICN - WSSS / SIN

Flight Track Log - Related Links

Times and Time Zones

All times are in EDT time to prevent confusion due to time zone crossing. See the KAL643 flight status page for this flight to view local times or setup timezone preferences in your user account.

Time Position Orientation Groundspeed Altitude Reporting Facility
EDT Latitude Longitude Course Direction KTS MPH feet Rate Location/Type
01:42AM 36.9089 126.1923 200° South  Level FlightAware Approximate
01:43AM 36.8155 126.1497 200° South  Level FlightAware Approximate
01:44AM 36.7221 126.1071 200° South  Level FlightAware Approximate
01:45AM 36.6286 126.0647 200° South  Level FlightAware Approximate
01:45AM 37.3110 126.2760 200° South 351 404 11,000  Level FlightAware
01:45AM 37.2710 126.3370 129° Southeast 354 407 11,200 1,680 Climbing FlightAware
01:46AM 37.1730 126.4130 148° Southeast 412 474 13,800 2,526 Climbing FlightAware
01:47AM 37.1010 126.4460 160° South 424 488 15,200 1,440 Climbing FlightAware
01:48AM 36.9510 126.5170 159° South 431 496 16,800 768 Climbing FlightAware
01:49AM 36.8870 126.5470 159° South 431 496 16,800  Level FlightAware
01:50AM 36.8240 126.5770 159° South 431 496 16,800  Level FlightAware
01:50AM 36.7610 126.6080 158° South 431 496 16,800  Level FlightAware
01:51AM 36.6970 126.6380 159° South 431 496 16,800  Level FlightAware
01:52AM 36.6340 126.6680 159° South 431 496 16,800 366 Level FlightAware
01:54AM 36.4890 126.5372 216° Southwest  Level Estimated
01:55AM 36.4084 126.4648 216° Southwest  Level Estimated
01:56AM 36.3278 126.3926 216° Southwest  Level Estimated
01:57AM 36.2471 126.3204 216° Southwest  Level Estimated
01:58AM 36.1663 126.2485 216° Southwest  Level Estimated
01:59AM 36.0855 126.1766 216° Southwest  Level Estimated
02:00AM 36.0047 126.1049 216° Southwest  Level Estimated
02:01AM 35.9239 126.0334 216° Southwest  Level Estimated
02:02AM 35.8430 125.9620 216° Southwest  Level Estimated
02:03AM 35.7620 125.8908 216° Southwest  Level Estimated
02:04AM 35.6810 125.8197 215° Southwest  Level Estimated
02:05AM 35.6000 125.7487 215° Southwest  Level Estimated
02:06AM 35.5189 125.6779 215° Southwest  Level Estimated
02:07AM 35.4378 125.6072 215° Southwest  Level Estimated
02:08AM 35.3566 125.5367 215° Southwest  Level Estimated
02:09AM 35.2754 125.4663 215° Southwest  Level Estimated
02:10AM 35.1942 125.3961 215° Southwest  Level Estimated
02:11AM 35.1129 125.3260 215° Southwest  Level Estimated
02:12AM 35.0316 125.2561 215° Southwest  Level Estimated
02:13AM 34.9502 125.1862 215° Southwest  Level Estimated
02:14AM 34.8688 125.1165 215° Southwest  Level Estimated
02:15AM 34.7874 125.0470 215° Southwest  Level Estimated
02:16AM 34.7059 124.9776 215° Southwest  Level Estimated
02:17AM 34.6244 124.9083 215° Southwest  Level Estimated
02:18AM 34.5428 124.8392 215° Southwest  Level Estimated
02:19AM 34.4612 124.7702 215° Southwest  Level Estimated
02:20AM 34.3796 124.7013 215° Southwest  Level Estimated
02:21AM 34.2979 124.6326 215° Southwest  Level Estimated
02:22AM 34.2162 124.5640 215° Southwest  Level Estimated
02:23AM 34.1345 124.4955 215° Southwest  Level Estimated
02:24AM 34.0527 124.4272 215° Southwest  Level Estimated
02:25AM 33.9709 124.3590 215° Southwest  Level Estimated
02:26AM 33.8890 124.2909 215° Southwest  Level Estimated
02:27AM 33.8071 124.2230 215° Southwest  Level Estimated
02:28AM 33.7252 124.1552 215° Southwest  Level Estimated
02:29AM 33.6432 124.0875 215° Southwest  Level Estimated
02:30AM 33.5612 124.0199 214° Southwest  Level Estimated
02:31AM 33.4791 123.9525 214° Southwest  Level Estimated
02:32AM 33.3971 123.8852 214° Southwest  Level Estimated
02:33AM 33.3149 123.8180 214° Southwest  Level Estimated
02:34AM 33.2328 123.7510 214° Southwest  Level Estimated
02:35AM 33.1506 123.6841 214° Southwest  Level Estimated
02:36AM 33.0684 123.6173 214° Southwest  Level Estimated
02:37AM 32.9861 123.5506 214° Southwest  Level Estimated
02:38AM 32.9038 123.4841 214° Southwest  Level Estimated
02:39AM 32.8215 123.4177 214° Southwest  Level Estimated
02:40AM 32.7391 123.3514 214° Southwest  Level Estimated
02:41AM 32.6567 123.2852 214° Southwest  Level Estimated
02:42AM 32.5743 123.2191 214° Southwest  Level Estimated
02:43AM 32.4918 123.1532 214° Southwest  Level Estimated
02:43AM 29.9530 125.1800 214° Southwest 453 521 36,000  Level FlightAware
02:44AM 32.4093 123.0874 214° Southwest  Level Estimated
02:44AM 29.8750 125.1410 203° Southwest 456 525 36,000  Level FlightAware
02:45AM 29.8070 125.0920 212° Southwest 450 518 36,000  Level FlightAware
02:46AM 29.7280 125.0320 213° Southwest 449 517 36,000  Level FlightAware
02:46AM 29.6540 124.9770 213° Southwest 457 526 36,000  Level FlightAware
02:47AM 29.5910 124.9300 213° Southwest 458 527 36,000  Level FlightAware
02:48AM 29.5020 124.8640 213° Southwest 458 527 36,000  Level FlightAware
02:48AM 29.4320 124.8130 212° Southwest 458 527 36,000  Level FlightAware
02:49AM 29.3500 124.7520 213° Southwest 458 527 36,000  Level FlightAware
02:50AM 29.2860 124.7060 212° Southwest 458 527 36,000  Level FlightAware
02:50AM 29.1990 124.6420 213° Southwest 456 525 36,000  Level FlightAware
02:51AM 29.1320 124.5930 213° Southwest 456 525 36,000  Level FlightAware
02:52AM 29.0610 124.5410 213° Southwest 454 522 36,000  Level FlightAware
02:53AM 28.9760 124.4790 213° Southwest 447 514 36,000  Level FlightAware
02:53AM 28.9140 124.4330 213° Southwest 455 524 36,000  Level FlightAware
02:54AM 28.8330 124.3740 213° Southwest 456 525 36,000  Level FlightAware
02:55AM 28.7770 124.3340 212° Southwest 456 525 36,000  Level FlightAware
02:55AM 28.7160 124.2910 212° Southwest 456 525 36,000  Level FlightAware
02:56AM 28.6400 124.2370 212° Southwest 456 525 36,000  Level FlightAware
02:57AM 28.5790 124.1930 212° Southwest 456 525 36,000  Level FlightAware
02:57AM 28.4680 124.1100 213° Southwest 457 526 36,000  Level FlightAware
02:58AM 28.3800 124.0470 212° Southwest 457 526 36,000  Level FlightAware
02:59AM 28.2480 123.9460 214° Southwest 456 525 36,000  Level FlightAware
03:01AM 28.0850 123.8170 215° Southwest 449 517 36,000  Level FlightAware
03:02AM 28.0280 123.7710 215° Southwest 449 517 36,000  Level FlightAware
03:03AM 27.9700 123.7250 215° Southwest 449 517 36,000  Level FlightAware
03:03AM 27.9120 123.6790 215° Southwest 449 517 36,000  Level FlightAware
03:04AM 27.8390 123.6220 215° Southwest 449 517 36,000  Level FlightAware
03:05AM 27.7820 123.5760 216° Southwest 449 517 36,000  Level FlightAware
03:05AM 27.7240 123.5310 214° Southwest 449 517 36,000  Level FlightAware
03:06AM 27.6660 123.4850 215° Southwest 449 517 36,000  Level FlightAware
03:07AM 27.6080 123.4390 215° Southwest 449 517 36,000  Level FlightAware
03:08AM 27.5360 123.3820 215° Southwest 449 517 36,000  Level FlightAware
03:08AM 27.4780 123.3360 215° Southwest 449 517 36,000  Level FlightAware
03:09AM 27.2540 123.1410 218° Southwest 450 518 36,000  Level FlightAware
03:10AM 27.1990 123.0970 215° Southwest 450 518 36,000  Level FlightAware
03:10AM 27.1180 123.0320 216° Southwest 451 519 36,000  Level FlightAware
03:11AM 27.0410 122.9710 215° Southwest 452 520 36,000  Level FlightAware
03:12AM 26.9720 122.9150 216° Southwest 452 520 36,000  Level FlightAware
03:13AM 26.8970 122.8560 215° Southwest 453 521 36,000  Level FlightAware
03:13AM 26.8280 122.8010 215° Southwest 455 524 36,000  Level FlightAware
03:14AM 26.7560 122.7440 215° Southwest 455 524 36,000  Level FlightAware
03:15AM 26.6810 122.6850 215° Southwest 453 521 36,000  Level FlightAware
03:15AM 26.6120 122.6300 215° Southwest 454 522 36,000  Level FlightAware
03:16AM 26.5360 122.5700 215° Southwest 456 525 36,000  Level FlightAware
03:17AM 26.4640 122.5140 215° Southwest 456 525 36,000  Level FlightAware
03:17AM 26.3960 122.4600 215° Southwest 457 526 36,000  Level FlightAware
03:18AM 26.3200 122.4000 215° Southwest 459 528 36,000  Level FlightAware
03:19AM 26.2480 122.3440 215° Southwest 461 531 36,000  Level FlightAware
03:19AM 26.1780 122.2900 215° Southwest 462 532 36,000  Level FlightAware
03:20AM 26.1010 122.2300 215° Southwest 462 532 36,000  Level FlightAware
03:21AM 26.0300 122.1760 214° Southwest 462 532 36,000  Level FlightAware
03:22AM 25.9490 122.1140 215° Southwest 460 529 36,000  Level FlightAware
03:22AM 25.8800 122.0610 215° Southwest 460 529 36,000  Level FlightAware
03:23AM 25.8090 122.0070 214° Southwest 460 529 36,000  Level FlightAware
03:24AM 25.7310 121.9470 215° Southwest 459 528 36,000  Level FlightAware
03:24AM 25.6600 121.8990 211° Southwest 463 533 36,000  Level FlightAware
03:25AM 25.5300 121.8930 182° South 478 550 36,000  Level FlightAware
03:26AM 25.4400 121.9030 174° South 477 549 36,000  Level FlightAware
03:27AM 25.3520 121.9140 174° South 476 548 36,000  Level FlightAware
03:29AM 25.2133 121.7918 219° Southwest  Level Estimated
03:29AM 25.0100 121.9530 219° Southwest 477 549 36,000  Level FlightAware
03:30AM 24.9390 121.9620 173° South 477 549 36,000  Level FlightAware
03:31AM 24.8120 121.9760 174° South 479 551 36,000  Level FlightAware
03:31AM 24.7270 121.9860 174° South 481 554 36,000  Level FlightAware
03:32AM 24.7050 121.9880 175° South 36,000  Level FlightAware
03:32AM 24.6070 121.9990 174° South 483 556 36,000  Level FlightAware
03:33AM 24.5260 122.0090 174° South 485 558 36,000  Level FlightAware
03:34AM 24.4120 122.0220 174° South 489 563 36,000  Level FlightAware
03:34AM 24.3290 122.0240 179° South 486 559 36,000  Level FlightAware
03:35AM 24.2800 122.0050 199° South 36,000  Level FlightAware
03:35AM 24.2470 121.9950 195° South 482 555 36,000  Level FlightAware
03:36AM 24.1410 121.9600 197° South 483 556 36,000  Level FlightAware
03:38AM 24.0178 121.8468 220° Southwest  Level Estimated
03:39AM 23.9416 121.7769 220° Southwest  Level Estimated
03:39AM 23.7860 121.8440 220° Southwest 482 555 36,000  Level FlightAware
03:39AM 23.7080 121.8170 198° South 483 556 36,000  Level FlightAware
03:40AM 23.6070 121.7800 199° South 483 556 36,000  Level FlightAware
03:41AM 23.5160 121.7520 196° South 485 558 36,000  Level FlightAware
03:41AM 23.4290 121.7280 194° South 486 559 36,000  Level FlightAware
03:42AM 23.3340 121.6990 196° South 486 559 36,000  Level FlightAware
03:43AM 23.2480 121.6700 197° South 485 558 36,000  Level FlightAware
03:44AM 23.1490 121.6370 197° South 486 559 36,000  Level FlightAware
03:44AM 23.0650 121.6100 196° South 487 560 36,000  Level FlightAware
03:45AM 22.9750 121.5810 197° South 488 562 36,000  Level FlightAware
03:46AM 22.8790 121.5510 196° South 489 563 36,000  Level FlightAware
03:46AM 22.7910 121.5230 196° South 489 563 36,000  Level FlightAware
03:47AM 22.7060 121.4960 196° South 486 559 36,000  Level FlightAware
03:48AM 22.6180 121.4390 211° Southwest 477 549 36,000  Level FlightAware
03:48AM 22.5490 121.3790 219° Southwest 477 549 36,000  Level FlightAware
03:49AM 22.4800 121.3190 219° Southwest 477 549 36,000  Level FlightAware
03:50AM 22.4030 121.2530 218° Southwest 476 548 36,000  Level FlightAware
03:50AM 22.3350 121.1940 219° Southwest 476 548 36,000  Level FlightAware
03:51AM 22.2550 121.1250 219° Southwest 475 547 36,000  Level FlightAware
03:52AM 22.1860 121.0660 218° Southwest 476 548 36,000  Level FlightAware
03:53AM 22.1110 121.0010 219° Southwest 477 549 36,000  Level FlightAware
03:53AM 22.0450 120.9440 219° Southwest 479 551 36,000  Level FlightAware
03:54AM 21.9770 120.8850 219° Southwest 478 550 36,000  Level FlightAware
03:55AM 21.9140 120.8280 220° Southwest 478 550 36,000  Level FlightAware
03:56AM 21.8180 120.7290 224° Southwest 479 551 36,000  Level FlightAware
03:56AM 21.7510 120.6580 225° Southwest 480 552 36,000  Level FlightAware
03:57AM 21.6850 120.5890 224° Southwest 480 552 36,000  Level FlightAware
03:58AM 21.6240 120.5260 224° Southwest 481 554 36,000  Level FlightAware
03:58AM 21.5620 120.4620 224° Southwest 483 556 36,000  Level FlightAware
03:59AM 21.4880 120.3840 224° Southwest 484 557 36,000  Level FlightAware
04:00AM 21.4260 120.3200 224° Southwest 485 558 36,000  Level FlightAware
04:01AM 21.3510 120.2420 224° Southwest 488 562 36,000  Level FlightAware
04:01AM 21.2830 120.1720 224° Southwest 486 559 36,000  Level FlightAware
04:02AM 21.2150 120.1020 224° Southwest 485 558 36,000  Level FlightAware
04:02AM 21.1550 120.0400 224° Southwest 485 558 36,000  Level FlightAware
04:03AM 21.0810 119.9630 224° Southwest 482 555 36,000  Level FlightAware
04:04AM 21.0210 119.9020 224° Southwest 482 555 36,000  Level FlightAware
04:05AM 20.9550 119.8320 225° Southwest 483 556 36,000  Level FlightAware
04:05AM 20.8960 119.7690 225° Southwest 484 557 36,000  Level FlightAware
04:06AM 20.8100 119.6750 226° Southwest 487 560 36,000  Level FlightAware
04:07AM 20.7520 119.6120 225° Southwest 490 564 36,000  Level FlightAware
04:08AM 20.6740 119.5290 225° Southwest 492 566 36,000  Level FlightAware
04:08AM 20.6100 119.4600 225° Southwest 492 566 36,000  Level FlightAware
04:09AM 20.5430 119.3880 225° Southwest 492 566 36,000  Level FlightAware
04:10AM 20.4740 119.3150 225° Southwest 489 563 36,000  Level FlightAware
04:10AM 20.4230 119.2600 225° Southwest 489 563 36,000  Level FlightAware
04:11AM 20.3250 119.1550 225° Southwest 487 560 36,000  Level FlightAware
04:12AM 20.2790 119.1070 224° Southwest 487 560 36,000  Level FlightAware
04:12AM 20.2090 119.0320 225° Southwest 487 560 36,000  Level FlightAware
04:13AM 20.1580 118.9770 225° Southwest 487 560 36,000  Level FlightAware
04:14AM 20.0900 118.9050 225° Southwest 487 560 36,000  Level FlightAware
04:15AM 19.9880 118.7970 225° Southwest 488 562 36,000  Level FlightAware
04:15AM 19.9340 118.7390 225° Southwest 488 562 36,000  Level FlightAware
04:16AM 19.8800 118.6820 225° Southwest 488 562 36,000  Level FlightAware
04:17AM 19.8250 118.6240 225° Southwest 488 562 36,000  Level FlightAware
04:17AM 19.7710 118.5660 225° Southwest 488 562 36,000  Level FlightAware
04:18AM 19.7030 118.4940 225° Southwest 488 562 36,000  Level FlightAware
04:19AM 19.6490 118.4370 225° Southwest 488 562 36,000  Level FlightAware
04:20AM 19.5950 118.3790 225° Southwest 488 562 36,000  Level FlightAware
04:20AM 19.5400 118.3210 225° Southwest 488 562 36,000  Level FlightAware
04:21AM 19.4860 118.2640 225° Southwest 488 562 36,000  Level FlightAware
04:22AM 19.4180 118.1920 225° Southwest 488 562 36,000  Level FlightAware
04:22AM 19.3640 118.1340 225° Southwest 488 562 36,000  Level FlightAware
04:23AM 19.3100 118.0770 225° Southwest 488 562 36,000  Level FlightAware
04:24AM 19.2550 118.0190 225° Southwest 488 562 36,000  Level FlightAware
04:26AM 19.1239 117.9060 219° Southwest  Level Estimated
04:27AM 19.0467 117.8396 219° Southwest  Level Estimated
04:28AM 18.9695 117.7732 219° Southwest  Level Estimated
04:29AM 18.8923 117.7069 219° Southwest  Level Estimated
04:30AM 18.8151 117.6407 219° Southwest  Level Estimated
04:31AM 18.7379 117.5746 219° Southwest  Level Estimated
04:32AM 18.6606 117.5085 219° Southwest  Level Estimated
04:33AM 18.5833 117.4424 219° Southwest  Level Estimated
04:34AM 18.5060 117.3764 219° Southwest  Level Estimated
04:35AM 18.4286 117.3105 219° Southwest  Level Estimated
04:36AM 18.3513 117.2447 219° Southwest  Level Estimated
04:37AM 18.2739 117.1789 219° Southwest  Level Estimated
04:38AM 18.1965 117.1131 219° Southwest  Level Estimated
04:39AM 18.1190 117.0474 219° Southwest  Level Estimated
04:40AM 18.0416 116.9818 219° Southwest  Level Estimated
04:41AM 17.9641 116.9163 219° Southwest  Level Estimated
04:42AM 17.8866 116.8507 219° Southwest  Level Estimated
04:43AM 17.8091 116.7853 219° Southwest  Level Estimated
04:44AM 17.7315 116.7199 219° Southwest  Level Estimated
04:45AM 17.6540 116.6545 219° Southwest  Level Estimated
04:46AM 17.5764 116.5893 219° Southwest  Level Estimated
04:47AM 17.4988 116.5240 219° Southwest  Level Estimated
04:48AM 17.4211 116.4589 219° Southwest  Level Estimated
04:49AM 17.3435 116.3938 219° Southwest  Level Estimated
04:50AM 17.2658 116.3287 219° Southwest  Level Estimated
04:51AM 17.1881 116.2637 219° Southwest  Level Estimated
04:52AM 17.1104 116.1987 219° Southwest  Level Estimated
04:53AM 17.0327 116.1338 219° Southwest  Level Estimated
04:54AM 16.9549 116.0690 219° Southwest  Level Estimated
04:55AM 16.8772 116.0042 219° Southwest  Level Estimated
04:56AM 16.7994 115.9395 219° Southwest  Level Estimated
04:57AM 16.7215 115.8748 219° Southwest  Level Estimated
04:58AM 16.6437 115.8102 219° Southwest  Level Estimated
04:59AM 16.5658 115.7456 218° Southwest  Level Estimated
05:00AM 16.4880 115.6810 218° Southwest  Level Estimated
05:01AM 16.4101 115.6166 218° Southwest  Level Estimated
05:02AM 16.3322 115.5521 218° Southwest  Level Estimated
05:03AM 16.2542 115.4878 218° Southwest  Level Estimated
05:04AM 16.1763 115.4235 218° Southwest  Level Estimated
05:05AM 16.0983 115.3592 218° Southwest  Level Estimated
05:06AM 16.0203 115.2950 218° Southwest  Level Estimated
05:07AM 15.9423 115.2308 218° Southwest  Level Estimated
05:08AM 15.8643 115.1667 218° Southwest  Level Estimated
05:09AM 15.7862 115.1026 218° Southwest  Level Estimated
05:10AM 15.7082 115.0386 218° Southwest  Level Estimated
05:11AM 15.6301 114.9746 218° Southwest  Level Estimated
05:12AM 15.5520 114.9107 218° Southwest  Level Estimated
05:13AM 15.4739 114.8468 218° Southwest  Level Estimated
05:14AM 15.3957 114.7830 218° Southwest  Level Estimated
05:15AM 15.3175 114.7192 218° Southwest  Level Estimated
05:16AM 15.2394 114.6555 218° Southwest  Level Estimated
05:17AM 15.1612 114.5918 218° Southwest  Level Estimated
05:18AM 15.0830 114.5282 218° Southwest  Level Estimated
05:19AM 15.0047 114.4646 218° Southwest  Level Estimated
05:20AM 14.9265 114.4010 218° Southwest  Level Estimated
05:21AM 14.8482 114.3375 218° Southwest  Level Estimated
05:22AM 14.7699 114.2741 218° Southwest  Level Estimated
05:23AM 14.6916 114.2107 218° Southwest  Level Estimated
05:24AM 14.6133 114.1473 218° Southwest  Level Estimated
05:25AM 14.5350 114.0840 218° Southwest  Level Estimated
05:26AM 14.4566 114.0208 218° Southwest  Level Estimated
05:27AM 14.3783 113.9575 218° Southwest  Level Estimated
05:28AM 14.2999 113.8943 218° Southwest  Level Estimated
05:29AM 14.2215 113.8312 218° Southwest  Level Estimated
05:30AM 14.1430 113.7681 218° Southwest  Level Estimated
05:31AM 14.0646 113.7051 218° Southwest  Level Estimated
05:32AM 13.9861 113.6421 218° Southwest  Level Estimated
05:33AM 13.9077 113.5791 218° Southwest  Level Estimated
05:34AM 13.8292 113.5162 218° Southwest  Level Estimated
05:35AM 13.7507 113.4533 218° Southwest  Level Estimated
05:36AM 13.6722 113.3905 218° Southwest  Level Estimated
05:37AM 13.5936 113.3277 218° Southwest  Level Estimated
05:38AM 13.5151 113.2649 218° Southwest  Level Estimated
05:39AM 13.4365 113.2022 218° Southwest  Level Estimated
05:40AM 13.3580 113.1395 218° Southwest  Level Estimated
05:41AM 13.2794 113.0769 218° Southwest  Level Estimated
05:42AM 13.2008 113.0143 218° Southwest  Level Estimated
05:43AM 13.1221 112.9518 218° Southwest  Level Estimated
05:44AM 13.0435 112.8893 218° Southwest  Level Estimated
05:45AM 12.9648 112.8268 218° Southwest  Level Estimated
05:46AM 12.8862 112.7644 218° Southwest  Level Estimated
05:47AM 12.8075 112.7020 218° Southwest  Level Estimated
05:48AM 12.7288 112.6396 218° Southwest  Level Estimated
05:49AM 12.6501 112.5773 218° Southwest  Level Estimated
05:50AM 12.5713 112.5150 218° Southwest  Level Estimated
05:51AM 12.4926 112.4528 218° Southwest  Level Estimated
05:52AM 12.4138 112.3906 218° Southwest  Level Estimated
05:53AM 12.3351 112.3284 218° Southwest  Level Estimated
05:54AM 12.2563 112.2663 218° Southwest  Level Estimated
05:55AM 12.1775 112.2042 218° Southwest  Level Estimated
05:56AM 12.0987 112.1422 218° Southwest  Level Estimated
05:57AM 12.0198 112.0802 218° Southwest  Level Estimated
05:58AM 11.9410 112.0182 218° Southwest  Level Estimated
05:59AM 11.8622 111.9563 218° Southwest  Level Estimated
06:00AM 11.7833 111.8943 218° Southwest  Level Estimated
06:01AM 11.7044 111.8325 218° Southwest  Level Estimated
06:02AM 11.6255 111.7707 218° Southwest  Level Estimated
06:02AM 8.8880 109.3990 218° Southwest 482 555 36,000  Level FlightAware
06:02AM 8.8220 109.3540 214° Southwest 482 555 36,000  Level FlightAware
06:03AM 8.7410 109.2970 215° Southwest 482 555 36,000  Level FlightAware
06:04AM 8.6780 109.2540 214° Southwest 482 555 36,000  Level FlightAware
06:04AM 8.6150 109.2110 214° Southwest 482 555 36,000  Level FlightAware
06:05AM 8.5530 109.1690 214° Southwest 482 555 36,000  Level FlightAware
06:06AM 8.4740 109.1150 214° Southwest 482 555 36,000  Level FlightAware
06:06AM 8.4110 109.0720 214° Southwest 482 555 36,000  Level FlightAware
06:07AM 8.3480 109.0290 214° Southwest 482 555 36,000  Level FlightAware
06:08AM 8.2850 108.9860 214° Southwest 482 555 36,000  Level FlightAware
06:08AM 8.2230 108.9440 214° Southwest 482 555 36,000  Level FlightAware
06:09AM 8.1440 108.8900 214° Southwest 482 555 36,000  Level FlightAware
06:10AM 8.0810 108.8470 214° Southwest 482 555 36,000  Level FlightAware
06:11AM 8.0180 108.8040 214° Southwest 482 555 36,000  Level FlightAware
06:11AM 7.9550 108.7620 213° Southwest 482 555 36,000  Level FlightAware
06:12AM 7.8610 108.6970 214° Southwest 482 555 36,000 -50 Level FlightAware
06:15AM 7.6952 108.5638 219° Southwest  Level FlightAware Approximate
06:16AM 7.6198 108.5033 219° Southwest  Level FlightAware Approximate
06:17AM 7.5444 108.4428 219° Southwest  Level FlightAware Approximate
06:18AM 7.4690 108.3823 218° Southwest  Level FlightAware Approximate
06:19AM 7.3936 108.3219 218° Southwest  Level FlightAware Approximate
06:20AM 7.3182 108.2614 218° Southwest  Level FlightAware Approximate
06:21AM 7.2428 108.2010 218° Southwest  Level FlightAware Approximate
06:22AM 7.1674 108.1406 218° Southwest  Level FlightAware Approximate
06:23AM 7.0919 108.0803 218° Southwest  Level FlightAware Approximate
06:24AM 7.0165 108.0199 218° Southwest  Level FlightAware Approximate
06:25AM 6.9410 107.9596 218° Southwest  Level FlightAware Approximate
06:26AM 6.8656 107.8993 218° Southwest  Level FlightAware Approximate
06:27AM 6.7901 107.8390 218° Southwest  Level FlightAware Approximate
06:28AM 6.7146 107.7787 218° Southwest  Level FlightAware Approximate
06:29AM 6.6392 107.7184 218° Southwest  Level FlightAware Approximate
06:30AM 6.5637 107.6582 218° Southwest  Level FlightAware Approximate
06:31AM 6.4882 107.5980 218° Southwest  Level FlightAware Approximate
06:32AM 6.4127 107.5378 218° Southwest  Level FlightAware Approximate
06:33AM 6.3372 107.4776 218° Southwest  Level FlightAware Approximate
06:34AM 6.2616 107.4174 218° Southwest  Level FlightAware Approximate
06:35AM 6.1861 107.3573 218° Southwest  Level FlightAware Approximate
06:36AM 6.1106 107.2971 218° Southwest  Level FlightAware Approximate
06:37AM 6.0350 107.2370 218° Southwest  Level FlightAware Approximate
06:38AM 5.9595 107.1769 218° Southwest  Level FlightAware Approximate
06:39AM 5.8840 107.1169 218° Southwest  Level FlightAware Approximate
06:40AM 5.8084 107.0568 218° Southwest  Level FlightAware Approximate
06:41AM 5.7328 106.9967 218° Southwest  Level FlightAware Approximate
06:42AM 5.6573 106.9367 218° Southwest  Level FlightAware Approximate
06:43AM 5.5817 106.8767 218° Southwest  Level FlightAware Approximate
06:44AM 5.5061 106.8167 218° Southwest  Level FlightAware Approximate
06:45AM 5.4305 106.7567 218° Southwest  Level FlightAware Approximate
06:46AM 5.3549 106.6967 218° Southwest  Level FlightAware Approximate
06:47AM 5.2793 106.6368 218° Southwest  Level FlightAware Approximate
06:48AM 5.2037 106.5768 218° Southwest  Level FlightAware Approximate
06:49AM 5.1281 106.5169 218° Southwest  Level FlightAware Approximate
06:50AM 5.0525 106.4570 218° Southwest  Level FlightAware Approximate
06:51AM 4.9769 106.3971 218° Southwest  Level FlightAware Approximate
06:52AM 4.9012 106.3372 218° Southwest  Level FlightAware Approximate
06:53AM 4.8256 106.2773 218° Southwest  Level FlightAware Approximate
06:54AM 4.7500 106.2175 218° Southwest  Level FlightAware Approximate
06:55AM 4.6743 106.1576 218° Southwest  Level FlightAware Approximate
06:56AM 4.5987 106.0978 218° Southwest  Level FlightAware Approximate
06:56AM 3.2090 104.8840 218° Southwest 450 518 33,800  Level FlightAware
06:56AM 3.1570 104.8200 231° Southwest 440 506 33,400 -706 Descending FlightAware
06:57AM 3.1000 104.7490 231° Southwest 433 498 32,800 -847 Descending FlightAware
06:58AM 3.0510 104.6850 233° Southwest 431 496 32,200 -847 Descending FlightAware
06:59AM 3.0220 104.5980 252° West 430 495 31,600 -776 Descending FlightAware
06:59AM 3.0050 104.5200 258° West 426 490 31,100 -825 Descending FlightAware
07:00AM 2.9890 104.4440 258° West 416 479 30,500 -1,271 Descending FlightAware
07:01AM 2.9720 104.3630 258° West 412 474 29,300 -1,553 Descending FlightAware
07:01AM 2.9560 104.2880 258° West 406 467 28,300 -1,341 Descending FlightAware
07:02AM 2.9390 104.2100 258° West 396 456 27,400 -1,200 Descending FlightAware
07:03AM 2.9140 104.1380 251° West 388 447 26,600 -1,029 Descending FlightAware
07:03AM 2.8700 104.1090 213° Southwest 376 433 26,200 -1,129 Descending FlightAware
07:04AM 2.7780 104.1040 183° South 360 414 25,000 -1,326 Descending FlightAware
07:05AM 2.7140 104.1050 179° South 357 411 24,100 -1,074 Descending FlightAware
07:06AM 2.6250 104.1060 179° South 356 410 23,300 -1,500 Descending FlightAware
07:06AM 2.5480 104.1050 181° South 349 402 21,600 -1,765 Descending FlightAware
07:07AM 2.4850 104.1050 180° South 342 394 20,800 -750 Descending FlightAware
07:08AM 2.4250 104.1050 180° South 340 391 20,600 -918 Descending FlightAware
07:09AM 2.3480 104.1160 172° South 343 395 19,500 -1,200 Descending FlightAware
07:09AM 2.2870 104.1260 171° South 340 391 18,900 -706 Descending FlightAware
07:10AM 2.2170 104.1270 179° South 316 364 18,500 -776 Descending FlightAware
07:11AM 2.1610 104.1210 186° South 307 353 17,800 -1,125 Descending FlightAware
07:11AM 2.1060 104.1160 185° South 305 351 17,000 -918 Descending FlightAware
07:12AM 2.0400 104.1100 185° South 303 349 16,500 -918 Descending FlightAware
07:13AM 1.9830 104.1050 185° South 302 348 15,700 -1,120 Descending FlightAware
07:13AM 1.9360 104.1050 180° South 298 343 15,100 -800 Descending FlightAware
07:14AM 1.8850 104.1050 180° South 286 329 14,700 -800 Descending FlightAware
07:15AM 1.7940 104.1060 179° South 277 319 13,700 -1,036 Descending FlightAware
07:16AM 1.7380 104.1060 180° South 279 321 12,800 -1,271 Descending FlightAware
07:16AM 1.6850 104.1060 180° South 276 318 11,900 -1,200 Descending FlightAware
07:17AM 1.6350 104.1090 177° South 276 318 11,200 -1,129 Descending FlightAware
07:18AM 1.5760 104.1110 178° South 268 308 10,300 -1,200 Descending FlightAware
07:18AM 1.5460 104.1120 178° South 267 307 9,800 -1,200 Descending FlightAware
07:19AM 1.5100 104.1130 178° South 263 303 9,200 -600 Descending FlightAware
07:19AM 1.4720 104.1140 178° South 270 311 9,200 -109 Level FlightAware
07:20AM 1.4400 104.1160 176° South 264 304 9,100 -600 Descending FlightAware
07:20AM 1.4250 104.1210 162° South 264 304 8,800 -1,350 Descending FlightAware
07:20AM 1.3950 104.1360 153° Southeast 268 308 8,200 -1,200 Descending FlightAware
07:21AM 1.3800 104.1440 152° Southeast 268 308 8,000 -800 Descending FlightAware
07:21AM 1.3480 104.1640 148° Southeast 259 298 7,600 -933 Descending FlightAware
07:21AM 1.3330 104.1740 146° Southeast 254 292 7,300 -600 Descending FlightAware
07:22AM 1.3080 104.1900 147° Southeast 264 304 7,200 -109 Descending FlightAware
07:22AM 1.2750 104.2060 154° Southeast 262 302 7,200  Level FlightAware
07:23AM 1.2400 104.2070 178° South 254 292 7,200  Level FlightAware
07:23AM 1.2100 104.2070 180° South 252 290 7,200  Level FlightAware
07:23AM 1.1930 104.2050 187° South 244 281 7,200 -800 Level FlightAware
07:24AM 1.1760 104.1990 199° South 244 281 6,800 -1,350 Descending FlightAware
07:24AM 1.1500 104.1900 199° South 245 282 6,300 -1,091 Descending FlightAware
07:25AM 1.1220 104.1720 213° Southwest 244 281 5,800 -933 Descending FlightAware
07:25AM 1.1080 104.1600 221° Southwest 242 278 5,600 -600 Descending FlightAware
07:25AM 1.0920 104.1380 234° Southwest 241 277 5,400 -600 Descending FlightAware
07:26AM 1.0830 104.1120 251° West 240 276 5,100 -533 Descending FlightAware
07:26AM 1.0850 104.0890 275° West 238 274 5,000 -400 Descending FlightAware
07:26AM 1.0870 104.0630 274° West 242 278 4,800 -545 Descending FlightAware
07:27AM 1.0940 104.0290 282° West 241 277 4,500 -500 Descending FlightAware
07:27AM 1.1100 104.0020 301° West 239 275 4,300 -655 Descending FlightAware
07:28AM 1.1250 103.9760 300° West 234 269 3,900 -873 Descending FlightAware
07:28AM 1.1420 103.9490 302° West 227 261 3,500 -750 Descending FlightAware
07:29AM 1.1490 103.9420 315° West 222 255 3,400 -720 Descending FlightAware
07:29AM 1.1620 103.9370 339° North 221 254 3,200 -800 Descending FlightAware
07:29AM 1.1920 103.9320 351° North 212 244 2,800 -600 Descending FlightAware
07:30AM 1.2210 103.9270 350° North 196 226 2,600 -655 Descending FlightAware
07:30AM 1.2430 103.9320 13° North 192 221 2,200 -655 Descending FlightAware
07:31AM 1.2660 103.9430 26° Northeast 188 216 2,000 -600 Descending FlightAware
07:31AM 1.2740 103.9460 21° North 185 213 1,800 -1,050 Descending FlightAware
07:31AM 1.2970 103.9560 23° Northeast 156 180 1,300 -933 Descending FlightAware
07:32AM 1.3060 103.9600 24° Northeast 151 174 1,100 -750 Descending FlightAware
07:32AM 1.3230 103.9660 19° North 151 174 800 -750 Descending FlightAware
07:32AM 1.3320 103.9700 24° Northeast 147 169 600 -500 Descending FlightAware
07:33AM 1.3590 103.9820 24° Northeast 143 165 300 -400 Descending FlightAware
07:36AM 1.3557 103.9875 121° Southeast  Level Estimated